Victoria Regional Airport
KVCT : rendu visible

Aérodrome :











RETROUVEZ-NOUS SUR...

 
LOGIN :

S'inscrire | Disclaimer

   EN    FR    IT 

 









Légende :    VFR   VFR Marginal   IFR   IFR Intensif   IFR Très Intensif
Visi : 
Plafond : 
>= 8 km
>= 3000ft
5 à 8 km
1000 à 3000 ft
1500m à 5 km
500 à 1000 ft
800 à 1500m
200 à 500 ft
< 800m
< 200 ft
Symboles :   Orages  Brouillard  Fortes neiges  Fortes précipitations  Vent > 20 kt






- Altitude de l'aérodrome : 115 ft
- Code IATA : VCT


KVCT - Victoria Regional

DERNIER METAR :
  • 140846Z AUTO 36009KT 2 1/2SM -RA BR BKN005 OVC013 06/04 A3014 RMK AO2 RAB0755 CIG 004V008 P0001 $

METARs EXPIRÉS :
  • 140826Z AUTO 36008KT 3SM -RA BR BKN006 OVC013 06/04 A3014 RMK AO2 RAB0755 CIG 004V008 P0001 T00610044 $
  • 140807Z AUTO 35010KT 2 1/2SM -RA BR SCT007 OVC014 06/04 A3014 RMK AO2 RAB0755 P0000 T00610044 $
  • 140751Z AUTO 34009KT 5SM BR OVC014 07/04 A3014 RMK AO2 SLP206 T00670044 $
  • 140723Z AUTO 36009KT 9SM OVC014 07/04 A3014 RMK AO2 T00670039 $
  • 140651Z AUTO 36006KT 10SM OVC015 07/04 A3014 RMK AO2 RAE0557 SLP205 P0001 T00670039 $
  • 140551Z AUTO 01006KT 10SM -RA OVC020 07/03 A3014 RMK AO2 RAB42 SLP207 P0000 60000 T00670033 10067 20056 400720000 56013 $

TAF KVCT
Valide du 14 à 06h jusqu'au 15 à 06h UTC


140520Z 1406/1506 01006KT P6SM -RA SCT010 OVC025
FM140900 01007KT 6SM -RA BR OVC007
FM141500 02011KT 4SM -DZ BR OVC007
FM142000 36012KT P6SM OVC010



MET'MAP, la Météo Aéronautique d'un coup d'oeil ! - Copyright ORBIFLY Décembre 2007 - Disclaimer

ORBIFLY MET'MAP TEAM :

Programmation & Développement : Alexandra Zaïnal
Conception & Développement : Baudouin d'Aumeries
Co-Programmation & Développement : Marc-Olivier Méhu
Soutien technique & logistique : Manuel Goepfert

Contact : metmap@orbifly.com




SOURCES & CREDITS :

   NOAA       Earth
Advisory